<?xml version="1.0" encoding="UTF-8" standalone="no" ?>
<gpx xmlns="http://www.topografix.com/GPX/1/1" xmlns:xsi="http://www.w3.org/2001/XMLSchema-instance" xsi:schemaLocation="http://www.topografix.com/GPX/1/1 http://www.topografix.com/GPX/1/1/gpx.xsd" version="1.1" creator="VisuGPX - https://www.visugpx.com">
  <metadata>
    <name>MARS-20-22 10:33:10</name>
    <desc><![CDATA[sortie dominicale au bois de mercou]]></desc>
  </metadata>
  <trk>
    <name><![CDATA[MARS-20-22 10:33:10]]></name>
    <extensions>
      <line xmlns="http://www.topografix.com/GPX/gpx_style/0/2">
        <color>0000FF</color>
        <width>4</width>
      </line>
    </extensions>
    <trkseg>
      <trkpt lat="45.00405" lon="2.90617">
        <ele>1105.65</ele>
        <time>2022-03-20T08:03:20Z</time>
      </trkpt>
      <trkpt lat="45.00404" lon="2.90616">
        <ele>1105.65</ele>
        <time>2022-03-20T08:03:27Z</time>
      </trkpt>
      <trkpt lat="45.00403" lon="2.90608">
        <ele>1104.21</ele>
        <time>2022-03-20T08:03:32Z</time>
      </trkpt>
      <trkpt lat="45.00403" lon="2.90602">
        <ele>1103.25</ele>
        <time>2022-03-20T08:03:35Z</time>
      </trkpt>
      <trkpt lat="45.00401" lon="2.90596">
        <ele>1102.29</ele>
        <time>2022-03-20T08:03:43Z</time>
      </trkpt>
      <trkpt lat="45.00403" lon="2.90587">
        <ele>1102.29</ele>
        <time>2022-03-20T08:03:49Z</time>
      </trkpt>
      <trkpt lat="45.00398" lon="2.90578">
        <ele>1102.77</ele>
        <time>2022-03-20T08:03:59Z</time>
      </trkpt>
      <trkpt lat="45.00389" lon="2.90574">
        <ele>1103.25</ele>
        <time>2022-03-20T08:04:04Z</time>
      </trkpt>
      <trkpt lat="45.00381" lon="2.90577">
        <ele>1105.17</ele>
        <time>2022-03-20T08:04:14Z</time>
      </trkpt>
      <trkpt lat="45.00367" lon="2.90578">
        <ele>1107.58</ele>
        <time>2022-03-20T08:04:24Z</time>
      </trkpt>
      <trkpt lat="45.00349" lon="2.90581">
        <ele>1107.1</ele>
        <time>2022-03-20T08:04:32Z</time>
      </trkpt>
      <trkpt lat="45.00337" lon="2.90581">
        <ele>1107.1</ele>
        <time>2022-03-20T08:04:41Z</time>
      </trkpt>
      <trkpt lat="45.00322" lon="2.90571">
        <ele>1107.58</ele>
        <time>2022-03-20T08:04:51Z</time>
      </trkpt>
      <trkpt lat="45.00316" lon="2.90566">
        <ele>1106.61</ele>
        <time>2022-03-20T08:04:59Z</time>
      </trkpt>
      <trkpt lat="45.00304" lon="2.90558">
        <ele>1106.13</ele>
        <time>2022-03-20T08:05:07Z</time>
      </trkpt>
      <trkpt lat="45.00298" lon="2.90555">
        <ele>1106.13</ele>
        <time>2022-03-20T08:05:11Z</time>
      </trkpt>
      <trkpt lat="45.00282" lon="2.90541">
        <ele>1108.06</ele>
        <time>2022-03-20T08:05:21Z</time>
      </trkpt>
      <trkpt lat="45.00279" lon="2.9054">
        <ele>1109.02</ele>
        <time>2022-03-20T08:05:23Z</time>
      </trkpt>
      <trkpt lat="45.00265" lon="2.90528">
        <ele>1107.1</ele>
        <time>2022-03-20T08:05:32Z</time>
      </trkpt>
      <trkpt lat="45.0025" lon="2.90517">
        <ele>1103.73</ele>
        <time>2022-03-20T08:05:45Z</time>
      </trkpt>
      <trkpt lat="45.00236" lon="2.90503">
        <ele>1101.33</ele>
        <time>2022-03-20T08:05:57Z</time>
      </trkpt>
      <trkpt lat="45.00225" lon="2.90494">
        <ele>1099.4</ele>
        <time>2022-03-20T08:06:06Z</time>
      </trkpt>
      <trkpt lat="45.0022" lon="2.90493">
        <ele>1099.4</ele>
        <time>2022-03-20T08:06:10Z</time>
      </trkpt>
      <trkpt lat="45.00206" lon="2.90485">
        <ele>1101.81</ele>
        <time>2022-03-20T08:06:20Z</time>
      </trkpt>
      <trkpt lat="45.00196" lon="2.90479">
        <ele>1102.77</ele>
        <time>2022-03-20T08:06:28Z</time>
      </trkpt>
      <trkpt lat="45.00189" lon="2.90473">
        <ele>1105.17</ele>
        <time>2022-03-20T08:06:33Z</time>
      </trkpt>
      <trkpt lat="45.00176" lon="2.90466">
        <ele>1105.17</ele>
        <time>2022-03-20T08:06:42Z</time>
      </trkpt>
      <trkpt lat="45.00158" lon="2.90457">
        <ele>1106.13</ele>
        <time>2022-03-20T08:06:51Z</time>
      </trkpt>
      <trkpt lat="45.00145" lon="2.90447">
        <ele>1108.06</ele>
        <time>2022-03-20T08:07:02Z</time>
      </trkpt>
      <trkpt lat="45.00128" lon="2.90436">
        <ele>1109.02</ele>
        <time>2022-03-20T08:07:11Z</time>
      </trkpt>
      <trkpt lat="45.00108" lon="2.90425">
        <ele>1108.06</ele>
        <time>2022-03-20T08:07:23Z</time>
      </trkpt>
      <trkpt lat="45.00087" lon="2.90418">
        <ele>1108.54</ele>
        <time>2022-03-20T08:07:34Z</time>
      </trkpt>
      <trkpt lat="45.00082" lon="2.90419">
        <ele>1109.5</ele>
        <time>2022-03-20T08:07:43Z</time>
      </trkpt>
      <trkpt lat="45.00065" lon="2.90423">
        <ele>1107.58</ele>
        <time>2022-03-20T08:07:52Z</time>
      </trkpt>
      <trkpt lat="45.00053" lon="2.90427">
        <ele>1107.58</ele>
        <time>2022-03-20T08:08:00Z</time>
      </trkpt>
      <trkpt lat="45.0005" lon="2.90427">
        <ele>1108.54</ele>
        <time>2022-03-20T08:08:05Z</time>
      </trkpt>
      <trkpt lat="45.00031" lon="2.90427">
        <ele>1107.58</ele>
        <time>2022-03-20T08:08:14Z</time>
      </trkpt>
      <trkpt lat="45.00021" lon="2.9043">
        <ele>1108.54</ele>
        <time>2022-03-20T08:08:23Z</time>
      </trkpt>
      <trkpt lat="45.00009" lon="2.90429">
        <ele>1109.5</ele>
        <time>2022-03-20T08:08:29Z</time>
      </trkpt>
      <trkpt lat="45.00002" lon="2.90426">
        <ele>1109.98</ele>
        <time>2022-03-20T08:08:33Z</time>
      </trkpt>
      <trkpt lat="44.99984" lon="2.90423">
        <ele>1109.98</ele>
        <time>2022-03-20T08:08:44Z</time>
      </trkpt>
      <trkpt lat="44.99977" lon="2.90418">
        <ele>1109.02</ele>
        <time>2022-03-20T08:08:55Z</time>
      </trkpt>
      <trkpt lat="44.99978" lon="2.90416">
        <ele>1109.5</ele>
        <time>2022-03-20T08:09:26Z</time>
      </trkpt>
      <trkpt lat="44.99975" lon="2.90414">
        <ele>1109.5</ele>
        <time>2022-03-20T08:09:35Z</time>
      </trkpt>
      <trkpt lat="44.99961" lon="2.90409">
        <ele>1107.58</ele>
        <time>2022-03-20T08:09:42Z</time>
      </trkpt>
      <trkpt lat="44.99952" lon="2.90406">
        <ele>1105.17</ele>
        <time>2022-03-20T08:09:53Z</time>
      </trkpt>
      <trkpt lat="44.9995" lon="2.90405">
        <ele>1105.17</ele>
        <time>2022-03-20T08:09:54Z</time>
      </trkpt>
      <trkpt lat="44.99932" lon="2.90391">
        <ele>1102.77</ele>
        <time>2022-03-20T08:10:04Z</time>
      </trkpt>
      <trkpt lat="44.99921" lon="2.90385">
        <ele>1101.33</ele>
        <time>2022-03-20T08:10:11Z</time>
      </trkpt>
      <trkpt lat="44.99914" lon="2.9038">
        <ele>1100.37</ele>
        <time>2022-03-20T08:10:16Z</time>
      </trkpt>
      <trkpt lat="44.99907" lon="2.90375">
        <ele>1098.44</ele>
        <time>2022-03-20T08:10:21Z</time>
      </trkpt>
      <trkpt lat="44.99882" lon="2.90354">
        <ele>1098.92</ele>
        <time>2022-03-20T08:10:35Z</time>
      </trkpt>
      <trkpt lat="44.99874" lon="2.90348">
        <ele>1100.37</ele>
        <time>2022-03-20T08:10:44Z</time>
      </trkpt>
      <trkpt lat="44.99861" lon="2.90337">
        <ele>1100.85</ele>
        <time>2022-03-20T08:10:53Z</time>
      </trkpt>
      <trkpt lat="44.99844" lon="2.90322">
        <ele>1097.48</ele>
        <time>2022-03-20T08:11:02Z</time>
      </trkpt>
      <trkpt lat="44.99831" lon="2.90314">
        <ele>1096.04</ele>
        <time>2022-03-20T08:11:13Z</time>
      </trkpt>
      <trkpt lat="44.99822" lon="2.90306">
        <ele>1098.44</ele>
        <time>2022-03-20T08:11:24Z</time>
      </trkpt>
      <trkpt lat="44.9981" lon="2.90301">
        <ele>1097.48</ele>
        <time>2022-03-20T08:11:32Z</time>
      </trkpt>
      <trkpt lat="44.99791" lon="2.90291">
        <ele>1097</ele>
        <time>2022-03-20T08:11:44Z</time>
      </trkpt>
      <trkpt lat="44.99789" lon="2.90287">
        <ele>1097</ele>
        <time>2022-03-20T08:12:00Z</time>
      </trkpt>
      <trkpt lat="44.99789" lon="2.90283">
        <ele>1096.04</ele>
        <time>2022-03-20T08:12:14Z</time>
      </trkpt>
      <trkpt lat="44.99789" lon="2.90283">
        <ele>1096.04</ele>
        <time>2022-03-20T08:12:34Z</time>
      </trkpt>
      <trkpt lat="44.99788" lon="2.90282">
        <ele>1096.04</ele>
        <time>2022-03-20T08:12:36Z</time>
      </trkpt>
      <trkpt lat="44.99791" lon="2.90264">
        <ele>1094.6</ele>
        <time>2022-03-20T08:12:47Z</time>
      </trkpt>
      <trkpt lat="44.99792" lon="2.90261">
        <ele>1094.6</ele>
        <time>2022-03-20T08:12:49Z</time>
      </trkpt>
      <trkpt lat="44.99793" lon="2.90246">
        <ele>1094.12</ele>
        <time>2022-03-20T08:12:56Z</time>
      </trkpt>
      <trkpt lat="44.99798" lon="2.90227">
        <ele>1092.68</ele>
        <time>2022-03-20T08:13:05Z</time>
      </trkpt>
      <trkpt lat="44.99802" lon="2.90213">
        <ele>1091.23</ele>
        <time>2022-03-20T08:13:12Z</time>
      </trkpt>
      <trkpt lat="44.99803" lon="2.90194">
        <ele>1093.16</ele>
        <time>2022-03-20T08:13:21Z</time>
      </trkpt>
      <trkpt lat="44.99806" lon="2.90185">
        <ele>1095.08</ele>
        <time>2022-03-20T08:13:26Z</time>
      </trkpt>
      <trkpt lat="44.99809" lon="2.90181">
        <ele>1095.56</ele>
        <time>2022-03-20T08:13:30Z</time>
      </trkpt>
      <trkpt lat="44.99811" lon="2.90177">
        <ele>1096.04</ele>
        <time>2022-03-20T08:13:32Z</time>
      </trkpt>
      <trkpt lat="44.99821" lon="2.90171">
        <ele>1098.44</ele>
        <time>2022-03-20T08:13:42Z</time>
      </trkpt>
      <trkpt lat="44.99832" lon="2.90167">
        <ele>1100.37</ele>
        <time>2022-03-20T08:13:50Z</time>
      </trkpt>
      <trkpt lat="44.99836" lon="2.90157">
        <ele>1099.89</ele>
        <time>2022-03-20T08:13:57Z</time>
      </trkpt>
      <trkpt lat="44.99828" lon="2.90145">
        <ele>1097.96</ele>
        <time>2022-03-20T08:14:06Z</time>
      </trkpt>
      <trkpt lat="44.99817" lon="2.9013">
        <ele>1093.16</ele>
        <time>2022-03-20T08:14:17Z</time>
      </trkpt>
      <trkpt lat="44.99813" lon="2.90124">
        <ele>1093.16</ele>
        <time>2022-03-20T08:14:23Z</time>
      </trkpt>
      <trkpt lat="44.99809" lon="2.90118">
        <ele>1092.68</ele>
        <time>2022-03-20T08:14:29Z</time>
      </trkpt>
      <trkpt lat="44.99805" lon="2.9011">
        <ele>1093.16</ele>
        <time>2022-03-20T08:14:35Z</time>
      </trkpt>
      <trkpt lat="44.99803" lon="2.90104">
        <ele>1092.68</ele>
        <time>2022-03-20T08:14:39Z</time>
      </trkpt>
      <trkpt lat="44.99803" lon="2.90099">
        <ele>1092.68</ele>
        <time>2022-03-20T08:14:43Z</time>
      </trkpt>
      <trkpt lat="44.99808" lon="2.90092">
        <ele>1095.56</ele>
        <time>2022-03-20T08:14:51Z</time>
      </trkpt>
      <trkpt lat="44.99813" lon="2.9009">
        <ele>1098.92</ele>
        <time>2022-03-20T08:14:55Z</time>
      </trkpt>
      <trkpt lat="44.99816" lon="2.90089">
        <ele>1099.4</ele>
        <time>2022-03-20T08:14:58Z</time>
      </trkpt>
      <trkpt lat="44.99821" lon="2.90091">
        <ele>1100.85</ele>
        <time>2022-03-20T08:15:02Z</time>
      </trkpt>
      <trkpt lat="44.99828" lon="2.9009">
        <ele>1102.77</ele>
        <time>2022-03-20T08:15:07Z</time>
      </trkpt>
      <trkpt lat="44.99833" lon="2.9009">
        <ele>1102.77</ele>
        <time>2022-03-20T08:15:11Z</time>
      </trkpt>
      <trkpt lat="44.99843" lon="2.90089">
        <ele>1102.29</ele>
        <time>2022-03-20T08:15:19Z</time>
      </trkpt>
      <trkpt lat="44.99843" lon="2.90084">
        <ele>1103.25</ele>
        <time>2022-03-20T08:15:23Z</time>
      </trkpt>
      <trkpt lat="44.99842" lon="2.9008">
        <ele>1103.73</ele>
        <time>2022-03-20T08:15:27Z</time>
      </trkpt>
      <trkpt lat="44.99833" lon="2.90073">
        <ele>1108.54</ele>
        <time>2022-03-20T08:15:36Z</time>
      </trkpt>
      <trkpt lat="44.99828" lon="2.90071">
        <ele>1110.94</ele>
        <time>2022-03-20T08:15:41Z</time>
      </trkpt>
      <trkpt lat="44.99821" lon="2.90064">
        <ele>1111.9</ele>
        <time>2022-03-20T08:15:48Z</time>
      </trkpt>
      <trkpt lat="44.99817" lon="2.90057">
        <ele>1112.38</ele>
        <time>2022-03-20T08:15:53Z</time>
      </trkpt>
      <trkpt lat="44.99809" lon="2.9004">
        <ele>1117.19</ele>
        <time>2022-03-20T08:16:06Z</time>
      </trkpt>
      <trkpt lat="44.99812" lon="2.90034">
        <ele>1118.63</ele>
        <time>2022-03-20T08:16:10Z</time>
      </trkpt>
      <trkpt lat="44.99813" lon="2.90025">
        <ele>1121.52</ele>
        <time>2022-03-20T08:16:15Z</time>
      </trkpt>
      <trkpt lat="44.99812" lon="2.9001">
        <ele>1123.92</ele>
        <time>2022-03-20T08:16:24Z</time>
      </trkpt>
      <trkpt lat="44.99811" lon="2.90004">
        <ele>1124.88</ele>
        <time>2022-03-20T08:16:28Z</time>
      </trkpt>
      <trkpt lat="44.99806" lon="2.89992">
        <ele>1128.73</ele>
        <time>2022-03-20T08:16:37Z</time>
      </trkpt>
      <trkpt lat="44.99804" lon="2.89981">
        <ele>1133.05</ele>
        <time>2022-03-20T08:16:46Z</time>
      </trkpt>
      <trkpt lat="44.99804" lon="2.89979">
        <ele>1133.05</ele>
        <time>2022-03-20T08:16:47Z</time>
      </trkpt>
      <trkpt lat="44.99803" lon="2.89962">
        <ele>1132.57</ele>
        <time>2022-03-20T08:16:56Z</time>
      </trkpt>
      <trkpt lat="44.99803" lon="2.89955">
        <ele>1131.61</ele>
        <time>2022-03-20T08:17:00Z</time>
      </trkpt>
      <trkpt lat="44.99802" lon="2.89947">
        <ele>1130.65</ele>
        <time>2022-03-20T08:17:05Z</time>
      </trkpt>
      <trkpt lat="44.99803" lon="2.89932">
        <ele>1132.09</ele>
        <time>2022-03-20T08:17:13Z</time>
      </trkpt>
      <trkpt lat="44.99803" lon="2.89925">
        <ele>1133.05</ele>
        <time>2022-03-20T08:17:17Z</time>
      </trkpt>
      <trkpt lat="44.99803" lon="2.89915">
        <ele>1134.01</ele>
        <time>2022-03-20T08:17:23Z</time>
      </trkpt>
      <trkpt lat="44.99804" lon="2.8991">
        <ele>1134.01</ele>
        <time>2022-03-20T08:17:26Z</time>
      </trkpt>
      <trkpt lat="44.99804" lon="2.89904">
        <ele>1134.01</ele>
        <time>2022-03-20T08:17:30Z</time>
      </trkpt>
      <trkpt lat="44.99805" lon="2.89891">
        <ele>1134.97</ele>
        <time>2022-03-20T08:17:37Z</time>
      </trkpt>
      <trkpt lat="44.99805" lon="2.89882">
        <ele>1134.97</ele>
        <time>2022-03-20T08:17:42Z</time>
      </trkpt>
      <trkpt lat="44.99804" lon="2.89875">
        <ele>1134.97</ele>
        <time>2022-03-20T08:17:46Z</time>
      </trkpt>
      <trkpt lat="44.9981" lon="2.89864">
        <ele>1133.53</ele>
        <time>2022-03-20T08:17:53Z</time>
      </trkpt>
      <trkpt lat="44.99813" lon="2.89862">
        <ele>1133.05</ele>
        <time>2022-03-20T08:17:55Z</time>
      </trkpt>
      <trkpt lat="44.99816" lon="2.89856">
        <ele>1132.57</ele>
        <time>2022-03-20T08:18:00Z</time>
      </trkpt>
      <trkpt lat="44.99824" lon="2.89847">
        <ele>1131.61</ele>
        <time>2022-03-20T08:18:09Z</time>
      </trkpt>
      <trkpt lat="44.99828" lon="2.89842">
        <ele>1131.61</ele>
        <time>2022-03-20T08:18:14Z</time>
      </trkpt>
      <trkpt lat="44.99832" lon="2.89833">
        <ele>1132.09</ele>
        <time>2022-03-20T08:18:20Z</time>
      </trkpt>
      <trkpt lat="44.99839" lon="2.89815">
        <ele>1131.61</ele>
        <time>2022-03-20T08:18:31Z</time>
      </trkpt>
      <trkpt lat="44.99841" lon="2.89811">
        <ele>1131.61</ele>
        <time>2022-03-20T08:18:33Z</time>
      </trkpt>
      <trkpt lat="44.99843" lon="2.89802">
        <ele>1130.65</ele>
        <time>2022-03-20T08:18:37Z</time>
      </trkpt>
      <trkpt lat="44.99844" lon="2.89797">
        <ele>1129.69</ele>
        <time>2022-03-20T08:18:40Z</time>
      </trkpt>
      <trkpt lat="44.99842" lon="2.89783">
        <ele>1133.05</ele>
        <time>2022-03-20T08:18:48Z</time>
      </trkpt>
      <trkpt lat="44.99842" lon="2.89778">
        <ele>1133.53</ele>
        <time>2022-03-20T08:18:51Z</time>
      </trkpt>
      <trkpt lat="44.9984" lon="2.89755">
        <ele>1135.94</ele>
        <time>2022-03-20T08:19:03Z</time>
      </trkpt>
      <trkpt lat="44.99841" lon="2.89748">
        <ele>1136.9</ele>
        <time>2022-03-20T08:19:07Z</time>
      </trkpt>
      <trkpt lat="44.99845" lon="2.89731">
        <ele>1135.94</ele>
        <time>2022-03-20T08:19:17Z</time>
      </trkpt>
      <trkpt lat="44.99846" lon="2.89717">
        <ele>1132.57</ele>
        <time>2022-03-20T08:19:24Z</time>
      </trkpt>
      <trkpt lat="44.99845" lon="2.89714">
        <ele>1132.57</ele>
        <time>2022-03-20T08:19:26Z</time>
      </trkpt>
      <trkpt lat="44.99847" lon="2.897">
        <ele>1131.61</ele>
        <time>2022-03-20T08:19:33Z</time>
      </trkpt>
      <trkpt lat="44.99856" lon="2.89695">
        <ele>1131.61</ele>
        <time>2022-03-20T08:19:39Z</time>
      </trkpt>
      <trkpt lat="44.99866" lon="2.89692">
        <ele>1134.01</ele>
        <time>2022-03-20T08:19:48Z</time>
      </trkpt>
      <trkpt lat="44.99879" lon="2.89684">
        <ele>1136.42</ele>
        <time>2022-03-20T08:20:00Z</time>
      </trkpt>
      <trkpt lat="44.99885" lon="2.8968">
        <ele>1137.38</ele>
        <time>2022-03-20T08:20:11Z</time>
      </trkpt>
      <trkpt lat="44.99886" lon="2.8968">
        <ele>1137.38</ele>
        <time>2022-03-20T08:20:19Z</time>
      </trkpt>
      <trkpt lat="44.9989" lon="2.89677">
        <ele>1140.26</ele>
        <time>2022-03-20T08:20:24Z</time>
      </trkpt>
      <trkpt lat="44.99895" lon="2.89673">
        <ele>1142.66</ele>
        <time>2022-03-20T08:20:30Z</time>
      </trkpt>
      <trkpt lat="44.99904" lon="2.89664">
        <ele>1145.07</ele>
        <time>2022-03-20T08:20:37Z</time>
      </trkpt>
      <trkpt lat="44.99919" lon="2.89657">
        <ele>1147.95</ele>
        <time>2022-03-20T08:20:48Z</time>
      </trkpt>
      <trkpt lat="44.99921" lon="2.89656">
        <ele>1148.43</ele>
        <time>2022-03-20T08:20:49Z</time>
      </trkpt>
      <trkpt lat="44.99936" lon="2.89652">
        <ele>1148.91</ele>
        <time>2022-03-20T08:21:00Z</time>
      </trkpt>
      <trkpt lat="44.9994" lon="2.8965">
        <ele>1149.39</ele>
        <time>2022-03-20T08:21:03Z</time>
      </trkpt>
      <trkpt lat="44.99949" lon="2.89647">
        <ele>1148.43</ele>
        <time>2022-03-20T08:21:08Z</time>
      </trkpt>
      <trkpt lat="44.99968" lon="2.89641">
        <ele>1150.35</ele>
        <time>2022-03-20T08:21:20Z</time>
      </trkpt>
      <trkpt lat="44.99974" lon="2.89639">
        <ele>1152.76</ele>
        <time>2022-03-20T08:21:25Z</time>
      </trkpt>
      <trkpt lat="44.99988" lon="2.89637">
        <ele>1153.24</ele>
        <time>2022-03-20T08:21:35Z</time>
      </trkpt>
      <trkpt lat="44.99993" lon="2.89635">
        <ele>1152.76</ele>
        <time>2022-03-20T08:21:39Z</time>
      </trkpt>
      <trkpt lat="45.00001" lon="2.89632">
        <ele>1151.8</ele>
        <time>2022-03-20T08:21:43Z</time>
      </trkpt>
      <trkpt lat="45.00016" lon="2.89629">
        <ele>1150.84</ele>
        <time>2022-03-20T08:21:55Z</time>
      </trkpt>
      <trkpt lat="45.00028" lon="2.89622">
        <ele>1151.32</ele>
        <time>2022-03-20T08:22:07Z</time>
      </trkpt>
      <trkpt lat="45.00034" lon="2.89619">
        <ele>1151.8</ele>
        <time>2022-03-20T08:22:13Z</time>
      </trkpt>
      <trkpt lat="45.00043" lon="2.89616">
        <ele>1153.24</ele>
        <time>2022-03-20T08:22:18Z</time>
      </trkpt>
      <trkpt lat="45.00053" lon="2.89609">
        <ele>1155.64</ele>
        <time>2022-03-20T08:22:25Z</time>
      </trkpt>
      <trkpt lat="45.00063" lon="2.896">
        <ele>1157.56</ele>
        <time>2022-03-20T08:22:34Z</time>
      </trkpt>
      <trkpt lat="45.00064" lon="2.89598">
        <ele>1158.05</ele>
        <time>2022-03-20T08:22:35Z</time>
      </trkpt>
      <trkpt lat="45.00069" lon="2.89589">
        <ele>1158.53</ele>
        <time>2022-03-20T08:22:39Z</time>
      </trkpt>
      <trkpt lat="45.00071" lon="2.89587">
        <ele>1159.01</ele>
        <time>2022-03-20T08:22:41Z</time>
      </trkpt>
      <trkpt lat="45.00072" lon="2.89585">
        <ele>1159.01</ele>
        <time>2022-03-20T08:22:43Z</time>
      </trkpt>
      <trkpt lat="45.0008" lon="2.89565">
        <ele>1159.97</ele>
        <time>2022-03-20T08:22:54Z</time>
      </trkpt>
      <trkpt lat="45.00089" lon="2.89552">
        <ele>1162.37</ele>
        <time>2022-03-20T08:23:02Z</time>
      </trkpt>
      <trkpt lat="45.00092" lon="2.89546">
        <ele>1163.81</ele>
        <time>2022-03-20T08:23:06Z</time>
      </trkpt>
      <trkpt lat="45.00103" lon="2.89529">
        <ele>1160.93</ele>
        <time>2022-03-20T08:23:17Z</time>
      </trkpt>
      <trkpt lat="45.00113" lon="2.89513">
        <ele>1157.56</ele>
        <time>2022-03-20T08:23:27Z</time>
      </trkpt>
      <trkpt lat="45.00123" lon="2.89493">
        <ele>1158.05</ele>
        <time>2022-03-20T08:23:38Z</time>
      </trkpt>
      <trkpt lat="45.00123" lon="2.8949">
        <ele>1159.49</ele>
        <time>2022-03-20T08:23:41Z</time>
      </trkpt>
      <trkpt lat="45.00124" lon="2.89482">
        <ele>1159.97</ele>
        <time>2022-03-20T08:23:45Z</time>
      </trkpt>
      <trkpt lat="45.00131" lon="2.89464">
        <ele>1160.93</ele>
        <time>2022-03-20T08:23:54Z</time>
      </trkpt>
      <trkpt lat="45.00137" lon="2.89446">
        <ele>1160.93</ele>
        <time>2022-03-20T08:24:04Z</time>
      </trkpt>
      <trkpt lat="45.00138" lon="2.89438">
        <ele>1161.41</ele>
        <time>2022-03-20T08:24:09Z</time>
      </trkpt>
      <trkpt lat="45.0014" lon="2.89423">
        <ele>1164.29</ele>
        <time>2022-03-20T08:24:17Z</time>
      </trkpt>
      <trkpt lat="45.00144" lon="2.89403">
        <ele>1164.29</ele>
        <time>2022-03-20T08:24:27Z</time>
      </trkpt>
      <trkpt lat="45.00149" lon="2.89392">
        <ele>1164.29</ele>
        <time>2022-03-20T08:24:33Z</time>
      </trkpt>
      <trkpt lat="45.0015" lon="2.89387">
        <ele>1164.77</ele>
        <time>2022-03-20T08:24:36Z</time>
      </trkpt>
      <trkpt lat="45.00153" lon="2.89377">
        <ele>1165.26</ele>
        <time>2022-03-20T08:24:42Z</time>
      </trkpt>
      <trkpt lat="45.0016" lon="2.89357">
        <ele>1167.66</ele>
        <time>2022-03-20T08:24:53Z</time>
      </trkpt>
      <trkpt lat="45.00165" lon="2.89342">
        <ele>1168.14</ele>
        <time>2022-03-20T08:25:02Z</time>
      </trkpt>
      <trkpt lat="45.0017" lon="2.89332">
        <ele>1170.54</ele>
        <time>2022-03-20T08:25:08Z</time>
      </trkpt>
      <trkpt lat="45.00173" lon="2.89318">
        <ele>1171.98</ele>
        <time>2022-03-20T08:25:15Z</time>
      </trkpt>
      <trkpt lat="45.00176" lon="2.89306">
        <ele>1172.95</ele>
        <time>2022-03-20T08:25:22Z</time>
      </trkpt>
      <trkpt lat="45.00179" lon="2.89297">
        <ele>1172.95</ele>
        <time>2022-03-20T08:25:28Z</time>
      </trkpt>
      <trkpt lat="45.00183" lon="2.89289">
        <ele>1172.47</ele>
        <time>2022-03-20T08:25:33Z</time>
      </trkpt>
      <trkpt lat="45.00189" lon="2.89274">
        <ele>1171.98</ele>
        <time>2022-03-20T08:25:44Z</time>
      </trkpt>
      <trkpt lat="45.00193" lon="2.89268">
        <ele>1173.43</ele>
        <time>2022-03-20T08:25:48Z</time>
      </trkpt>
      <trkpt lat="45.00199" lon="2.89264">
        <ele>1174.39</ele>
        <time>2022-03-20T08:25:53Z</time>
      </trkpt>
      <trkpt lat="45.0021" lon="2.8925">
        <ele>1177.27</ele>
        <time>2022-03-20T08:26:04Z</time>
      </trkpt>
      <trkpt lat="45.00216" lon="2.89245">
        <ele>1178.71</ele>
        <time>2022-03-20T08:26:10Z</time>
      </trkpt>
      <trkpt lat="45.00218" lon="2.89244">
        <ele>1178.71</ele>
        <time>2022-03-20T08:26:12Z</time>
      </trkpt>
      <trkpt lat="45.00228" lon="2.89236">
        <ele>1180.64</ele>
        <time>2022-03-20T08:26:23Z</time>
      </trkpt>
      <trkpt lat="45.00237" lon="2.89231">
        <ele>1180.16</ele>
        <time>2022-03-20T08:26:29Z</time>
      </trkpt>
      <trkpt lat="45.00243" lon="2.89226">
        <ele>1181.6</ele>
        <time>2022-03-20T08:26:35Z</time>
      </trkpt>
      <trkpt lat="45.0025" lon="2.8922">
        <ele>1182.56</ele>
        <time>2022-03-20T08:26:41Z</time>
      </trkpt>
      <trkpt lat="45.00253" lon="2.89219">
        <ele>1183.04</ele>
        <time>2022-03-20T08:26:43Z</time>
      </trkpt>
      <trkpt lat="45.00262" lon="2.89209">
        <ele>1184.48</ele>
        <time>2022-03-20T08:26:54Z</time>
      </trkpt>
      <trkpt lat="45.00263" lon="2.89207">
        <ele>1184.48</ele>
        <time>2022-03-20T08:26:55Z</time>
      </trkpt>
      <trkpt lat="45.00267" lon="2.89205">
        <ele>1184.96</ele>
        <time>2022-03-20T08:26:58Z</time>
      </trkpt>
      <trkpt lat="45.00273" lon="2.89198">
        <ele>1186.88</ele>
        <time>2022-03-20T08:27:04Z</time>
      </trkpt>
      <trkpt lat="45.00283" lon="2.89182">
        <ele>1186.4</ele>
        <time>2022-03-20T08:27:16Z</time>
      </trkpt>
      <trkpt lat="45.00283" lon="2.8918">
        <ele>1186.4</ele>
        <time>2022-03-20T08:27:17Z</time>
      </trkpt>
      <trkpt lat="45.00286" lon="2.89176">
        <ele>1185.92</ele>
        <time>2022-03-20T08:27:21Z</time>
      </trkpt>
      <trkpt lat="45.00289" lon="2.8917">
        <ele>1186.4</ele>
        <time>2022-03-20T08:27:26Z</time>
      </trkpt>
      <trkpt lat="45.00293" lon="2.89163">
        <ele>1186.88</ele>
        <time>2022-03-20T08:27:31Z</time>
      </trkpt>
      <trkpt lat="45.00297" lon="2.89157">
        <ele>1188.81</ele>
        <time>2022-03-20T08:27:35Z</time>
      </trkpt>
      <trkpt lat="45.00305" lon="2.89139">
        <ele>1193.61</ele>
        <time>2022-03-20T08:27:46Z</time>
      </trkpt>
      <trkpt lat="45.00306" lon="2.89137">
        <ele>1193.61</ele>
        <time>2022-03-20T08:27:48Z</time>
      </trkpt>
      <trkpt lat="45.00313" lon="2.89118">
        <ele>1195.06</ele>
        <time>2022-03-20T08:28:01Z</time>
      </trkpt>
      <trkpt lat="45.00314" lon="2.89117">
        <ele>1195.54</ele>
        <time>2022-03-20T08:28:02Z</time>
      </trkpt>
      <trkpt lat="45.00318" lon="2.89109">
        <ele>1197.94</ele>
        <time>2022-03-20T08:28:07Z</time>
      </trkpt>
      <trkpt lat="45.00321" lon="2.89099">
        <ele>1198.9</ele>
        <time>2022-03-20T08:28:14Z</time>
      </trkpt>
      <trkpt lat="45.00326" lon="2.89079">
        <ele>1199.38</ele>
        <time>2022-03-20T08:28:26Z</time>
      </trkpt>
      <trkpt lat="45.00334" lon="2.89063">
        <ele>1197.46</ele>
        <time>2022-03-20T08:28:35Z</time>
      </trkpt>
      <trkpt lat="45.00335" lon="2.89062">
        <ele>1196.98</ele>
        <time>2022-03-20T08:28:38Z</time>
      </trkpt>
      <trkpt lat="45.00339" lon="2.89054">
        <ele>1196.5</ele>
        <time>2022-03-20T08:28:42Z</time>
      </trkpt>
      <trkpt lat="45.00345" lon="2.89045">
        <ele>1195.54</ele>
        <time>2022-03-20T08:28:49Z</time>
      </trkpt>
      <trkpt lat="45.00348" lon="2.89037">
        <ele>1195.06</ele>
        <time>2022-03-20T08:28:53Z</time>
      </trkpt>
      <trkpt lat="45.0035" lon="2.89034">
        <ele>1194.58</ele>
        <time>2022-03-20T08:28:55Z</time>
      </trkpt>
      <trkpt lat="45.00353" lon="2.89019">
        <ele>1195.54</ele>
        <time>2022-03-20T08:29:01Z</time>
      </trkpt>
      <trkpt lat="45.00355" lon="2.89016">
        <ele>1195.06</ele>
        <time>2022-03-20T08:29:03Z</time>
      </trkpt>
      <trkpt lat="45.00361" lon="2.88999">
        <ele>1194.58</ele>
        <time>2022-03-20T08:29:13Z</time>
      </trkpt>
      <trkpt lat="45.00366" lon="2.88988">
        <ele>1196.02</ele>
        <time>2022-03-20T08:29:18Z</time>
      </trkpt>
      <trkpt lat="45.00369" lon="2.88983">
        <ele>1197.94</ele>
        <time>2022-03-20T08:29:22Z</time>
      </trkpt>
      <trkpt lat="45.00372" lon="2.88973">
        <ele>1198.42</ele>
        <time>2022-03-20T08:29:27Z</time>
      </trkpt>
      <trkpt lat="45.00375" lon="2.88966">
        <ele>1198.42</ele>
        <time>2022-03-20T08:29:30Z</time>
      </trkpt>
      <trkpt lat="45.00386" lon="2.88954">
        <ele>1197.94</ele>
        <time>2022-03-20T08:29:41Z</time>
      </trkpt>
      <trkpt lat="45.00391" lon="2.88942">
        <ele>1198.42</ele>
        <time>2022-03-20T08:29:47Z</time>
      </trkpt>
      <trkpt lat="45.004" lon="2.88928">
        <ele>1198.42</ele>
        <time>2022-03-20T08:29:56Z</time>
      </trkpt>
      <trkpt lat="45.00401" lon="2.88922">
        <ele>1198.42</ele>
        <time>2022-03-20T08:29:59Z</time>
      </trkpt>
      <trkpt lat="45.00404" lon="2.88911">
        <ele>1200.34</ele>
        <time>2022-03-20T08:30:04Z</time>
      </trkpt>
      <trkpt lat="45.00407" lon="2.88902">
        <ele>1201.79</ele>
        <time>2022-03-20T08:30:10Z</time>
      </trkpt>
      <trkpt lat="45.00419" lon="2.88889">
        <ele>1204.19</ele>
        <time>2022-03-20T08:30:21Z</time>
      </trkpt>
      <trkpt lat="45.00421" lon="2.88888">
        <ele>1204.67</ele>
        <time>2022-03-20T08:30:22Z</time>
      </trkpt>
      <trkpt lat="45.00433" lon="2.8887">
        <ele>1208.03</ele>
        <time>2022-03-20T08:30:35Z</time>
      </trkpt>
      <trkpt lat="45.0044" lon="2.88863">
        <ele>1209.48</ele>
        <time>2022-03-20T08:30:40Z</time>
      </trkpt>
      <trkpt lat="45.00455" lon="2.88847">
        <ele>1213.32</ele>
        <time>2022-03-20T08:30:52Z</time>
      </trkpt>
      <trkpt lat="45.00468" lon="2.88831">
        <ele>1216.21</ele>
        <time>2022-03-20T08:31:03Z</time>
      </trkpt>
      <trkpt lat="45.00474" lon="2.88825">
        <ele>1215.72</ele>
        <time>2022-03-20T08:31:09Z</time>
      </trkpt>
      <trkpt lat="45.00494" lon="2.88808">
        <ele>1215.24</ele>
        <time>2022-03-20T08:31:23Z</time>
      </trkpt>
      <trkpt lat="45.00498" lon="2.88803">
        <ele>1214.28</ele>
        <time>2022-03-20T08:31:27Z</time>
      </trkpt>
      <trkpt lat="45.00513" lon="2.8879">
        <ele>1212.36</ele>
        <time>2022-03-20T08:31:38Z</time>
      </trkpt>
      <trkpt lat="45.00521" lon="2.88787">
        <ele>1211.4</ele>
        <time>2022-03-20T08:31:43Z</time>
      </trkpt>
      <trkpt lat="45.00534" lon="2.88774">
        <ele>1210.44</ele>
        <time>2022-03-20T08:31:53Z</time>
      </trkpt>
      <trkpt lat="45.00535" lon="2.88773">
        <ele>1210.44</ele>
        <time>2022-03-20T08:31:54Z</time>
      </trkpt>
      <trkpt lat="45.00537" lon="2.8877">
        <ele>1209.96</ele>
        <time>2022-03-20T08:31:56Z</time>
      </trkpt>
      <trkpt lat="45.00543" lon="2.88765">
        <ele>1210.92</ele>
        <time>2022-03-20T08:32:02Z</time>
      </trkpt>
      <trkpt lat="45.01227" lon="2.89082">
        <ele>1217.17</ele>
        <time>2022-03-20T09:01:33Z</time>
      </trkpt>
      <trkpt lat="45.01209" lon="2.89086">
        <ele>1215.24</ele>
        <time>2022-03-20T09:01:46Z</time>
      </trkpt>
      <trkpt lat="45.01201" lon="2.89085">
        <ele>1215.24</ele>
        <time>2022-03-20T09:01:53Z</time>
      </trkpt>
      <trkpt lat="45.01186" lon="2.89088">
        <ele>1216.21</ele>
        <time>2022-03-20T09:02:05Z</time>
      </trkpt>
      <trkpt lat="45.01172" lon="2.89089">
        <ele>1219.09</ele>
        <time>2022-03-20T09:02:16Z</time>
      </trkpt>
      <trkpt lat="45.01158" lon="2.89087">
        <ele>1227.74</ele>
        <time>2022-03-20T09:02:27Z</time>
      </trkpt>
      <trkpt lat="45.01149" lon="2.89088">
        <ele>1230.14</ele>
        <time>2022-03-20T09:02:34Z</time>
      </trkpt>
      <trkpt lat="45.01137" lon="2.89087">
        <ele>1232.07</ele>
        <time>2022-03-20T09:02:46Z</time>
      </trkpt>
      <trkpt lat="45.0113" lon="2.89084">
        <ele>1233.03</ele>
        <time>2022-03-20T09:02:52Z</time>
      </trkpt>
      <trkpt lat="45.0112" lon="2.8908">
        <ele>1236.39</ele>
        <time>2022-03-20T09:03:02Z</time>
      </trkpt>
      <trkpt lat="45.01106" lon="2.89078">
        <ele>1238.8</ele>
        <time>2022-03-20T09:03:12Z</time>
      </trkpt>
      <trkpt lat="45.01092" lon="2.89073">
        <ele>1235.43</ele>
        <time>2022-03-20T09:03:23Z</time>
      </trkpt>
      <trkpt lat="45.01081" lon="2.89067">
        <ele>1234.95</ele>
        <time>2022-03-20T09:03:32Z</time>
      </trkpt>
      <trkpt lat="45.0107" lon="2.8906">
        <ele>1237.83</ele>
        <time>2022-03-20T09:03:42Z</time>
      </trkpt>
      <trkpt lat="45.01065" lon="2.89057">
        <ele>1239.76</ele>
        <time>2022-03-20T09:03:46Z</time>
      </trkpt>
      <trkpt lat="45.01048" lon="2.89046">
        <ele>1241.68</ele>
        <time>2022-03-20T09:03:59Z</time>
      </trkpt>
      <trkpt lat="45.01035" lon="2.89044">
        <ele>1243.12</ele>
        <time>2022-03-20T09:04:07Z</time>
      </trkpt>
      <trkpt lat="45.0103" lon="2.8904">
        <ele>1242.64</ele>
        <time>2022-03-20T09:04:12Z</time>
      </trkpt>
      <trkpt lat="45.01018" lon="2.89029">
        <ele>1242.64</ele>
        <time>2022-03-20T09:04:23Z</time>
      </trkpt>
      <trkpt lat="45.01012" lon="2.89025">
        <ele>1242.64</ele>
        <time>2022-03-20T09:04:28Z</time>
      </trkpt>
      <trkpt lat="45.01" lon="2.89015">
        <ele>1240.72</ele>
        <time>2022-03-20T09:04:37Z</time>
      </trkpt>
      <trkpt lat="45.00984" lon="2.89011">
        <ele>1239.28</ele>
        <time>2022-03-20T09:04:48Z</time>
      </trkpt>
      <trkpt lat="45.00971" lon="2.89002">
        <ele>1238.32</ele>
        <time>2022-03-20T09:04:59Z</time>
      </trkpt>
      <trkpt lat="45.00969" lon="2.89003">
        <ele>1238.32</ele>
        <time>2022-03-20T09:05:00Z</time>
      </trkpt>
      <trkpt lat="45.00957" lon="2.88998">
        <ele>1240.72</ele>
        <time>2022-03-20T09:05:09Z</time>
      </trkpt>
      <trkpt lat="45.00946" lon="2.88992">
        <ele>1240.72</ele>
        <time>2022-03-20T09:05:18Z</time>
      </trkpt>
      <trkpt lat="45.0094" lon="2.8899">
        <ele>1240.72</ele>
        <time>2022-03-20T09:05:22Z</time>
      </trkpt>
      <trkpt lat="45.00937" lon="2.88985">
        <ele>1239.76</ele>
        <time>2022-03-20T09:05:25Z</time>
      </trkpt>
      <trkpt lat="45.00932" lon="2.88981">
        <ele>1239.76</ele>
        <time>2022-03-20T09:05:31Z</time>
      </trkpt>
      <trkpt lat="45.00926" lon="2.88974">
        <ele>1239.28</ele>
        <time>2022-03-20T09:05:38Z</time>
      </trkpt>
      <trkpt lat="45.00918" lon="2.88972">
        <ele>1239.76</ele>
        <time>2022-03-20T09:05:43Z</time>
      </trkpt>
      <trkpt lat="45.00908" lon="2.88969">
        <ele>1241.2</ele>
        <time>2022-03-20T09:05:50Z</time>
      </trkpt>
      <trkpt lat="45.00895" lon="2.88964">
        <ele>1243.12</ele>
        <time>2022-03-20T09:05:59Z</time>
      </trkpt>
      <trkpt lat="45.00883" lon="2.88957">
        <ele>1244.08</ele>
        <time>2022-03-20T09:06:08Z</time>
      </trkpt>
      <trkpt lat="45.00871" lon="2.8895">
        <ele>1244.56</ele>
        <time>2022-03-20T09:06:19Z</time>
      </trkpt>
      <trkpt lat="45.00869" lon="2.88949">
        <ele>1245.04</ele>
        <time>2022-03-20T09:06:21Z</time>
      </trkpt>
      <trkpt lat="45.00859" lon="2.88947">
        <ele>1244.56</ele>
        <time>2022-03-20T09:06:26Z</time>
      </trkpt>
      <trkpt lat="45.00851" lon="2.88939">
        <ele>1245.53</ele>
        <time>2022-03-20T09:06:33Z</time>
      </trkpt>
      <trkpt lat="45.00841" lon="2.88936">
        <ele>1245.53</ele>
        <time>2022-03-20T09:06:40Z</time>
      </trkpt>
      <trkpt lat="45.00835" lon="2.88931">
        <ele>1244.08</ele>
        <time>2022-03-20T09:06:46Z</time>
      </trkpt>
      <trkpt lat="45.00826" lon="2.88925">
        <ele>1241.68</ele>
        <time>2022-03-20T09:06:54Z</time>
      </trkpt>
      <trkpt lat="45.00812" lon="2.88931">
        <ele>1241.68</ele>
        <time>2022-03-20T09:07:06Z</time>
      </trkpt>
      <trkpt lat="45.00802" lon="2.88935">
        <ele>1240.72</ele>
        <time>2022-03-20T09:07:13Z</time>
      </trkpt>
      <trkpt lat="45.00789" lon="2.88949">
        <ele>1241.68</ele>
        <time>2022-03-20T09:07:25Z</time>
      </trkpt>
      <trkpt lat="45.00777" lon="2.88966">
        <ele>1244.08</ele>
        <time>2022-03-20T09:07:36Z</time>
      </trkpt>
      <trkpt lat="45.00777" lon="2.88966">
        <ele>1244.56</ele>
        <time>2022-03-20T09:07:37Z</time>
      </trkpt>
      <trkpt lat="45.00764" lon="2.88979">
        <ele>1246.49</ele>
        <time>2022-03-20T09:07:47Z</time>
      </trkpt>
      <trkpt lat="45.00758" lon="2.88987">
        <ele>1247.45</ele>
        <time>2022-03-20T09:07:56Z</time>
      </trkpt>
      <trkpt lat="45.00755" lon="2.8899">
        <ele>1246.97</ele>
        <time>2022-03-20T09:07:59Z</time>
      </trkpt>
      <trkpt lat="45.00751" lon="2.88994">
        <ele>1246.49</ele>
        <time>2022-03-20T09:08:03Z</time>
      </trkpt>
      <trkpt lat="45.00746" lon="2.89">
        <ele>1246.01</ele>
        <time>2022-03-20T09:08:08Z</time>
      </trkpt>
      <trkpt lat="45.00731" lon="2.89011">
        <ele>1244.08</ele>
        <time>2022-03-20T09:08:20Z</time>
      </trkpt>
      <trkpt lat="45.00725" lon="2.89018">
        <ele>1241.68</ele>
        <time>2022-03-20T09:08:27Z</time>
      </trkpt>
      <trkpt lat="45.00722" lon="2.89019">
        <ele>1241.68</ele>
        <time>2022-03-20T09:08:29Z</time>
      </trkpt>
      <trkpt lat="45.00719" lon="2.89021">
        <ele>1241.2</ele>
        <time>2022-03-20T09:08:32Z</time>
      </trkpt>
      <trkpt lat="45.00705" lon="2.89034">
        <ele>1245.04</ele>
        <time>2022-03-20T09:08:42Z</time>
      </trkpt>
      <trkpt lat="45.00698" lon="2.89038">
        <ele>1244.08</ele>
        <time>2022-03-20T09:08:46Z</time>
      </trkpt>
      <trkpt lat="45.00689" lon="2.89049">
        <ele>1244.08</ele>
        <time>2022-03-20T09:08:59Z</time>
      </trkpt>
      <trkpt lat="45.00686" lon="2.89057">
        <ele>1241.68</ele>
        <time>2022-03-20T09:09:10Z</time>
      </trkpt>
      <trkpt lat="45.00679" lon="2.89071">
        <ele>1239.76</ele>
        <time>2022-03-20T09:09:18Z</time>
      </trkpt>
      <trkpt lat="45.00667" lon="2.89087">
        <ele>1238.32</ele>
        <time>2022-03-20T09:09:28Z</time>
      </trkpt>
      <trkpt lat="45.0066" lon="2.89097">
        <ele>1238.32</ele>
        <time>2022-03-20T09:09:35Z</time>
      </trkpt>
      <trkpt lat="45.00655" lon="2.89103">
        <ele>1238.32</ele>
        <time>2022-03-20T09:09:40Z</time>
      </trkpt>
      <trkpt lat="45.00647" lon="2.89116">
        <ele>1237.83</ele>
        <time>2022-03-20T09:09:49Z</time>
      </trkpt>
      <trkpt lat="45.00645" lon="2.89121">
        <ele>1237.35</ele>
        <time>2022-03-20T09:09:52Z</time>
      </trkpt>
      <trkpt lat="45.00643" lon="2.89125">
        <ele>1236.87</ele>
        <time>2022-03-20T09:09:55Z</time>
      </trkpt>
      <trkpt lat="45.00641" lon="2.8913">
        <ele>1236.39</ele>
        <time>2022-03-20T09:09:58Z</time>
      </trkpt>
      <trkpt lat="45.00629" lon="2.89143">
        <ele>1234.95</ele>
        <time>2022-03-20T09:10:08Z</time>
      </trkpt>
      <trkpt lat="45.00623" lon="2.8915">
        <ele>1235.91</ele>
        <time>2022-03-20T09:10:15Z</time>
      </trkpt>
      <trkpt lat="45.00617" lon="2.89167">
        <ele>1238.8</ele>
        <time>2022-03-20T09:10:21Z</time>
      </trkpt>
      <trkpt lat="45.00613" lon="2.89191">
        <ele>1242.16</ele>
        <time>2022-03-20T09:10:34Z</time>
      </trkpt>
      <trkpt lat="45.00614" lon="2.89203">
        <ele>1242.16</ele>
        <time>2022-03-20T09:10:41Z</time>
      </trkpt>
      <trkpt lat="45.0061" lon="2.89223">
        <ele>1242.16</ele>
        <time>2022-03-20T09:10:51Z</time>
      </trkpt>
      <trkpt lat="45.00608" lon="2.89227">
        <ele>1242.16</ele>
        <time>2022-03-20T09:10:54Z</time>
      </trkpt>
      <trkpt lat="45.00604" lon="2.89242">
        <ele>1240.72</ele>
        <time>2022-03-20T09:11:01Z</time>
      </trkpt>
      <trkpt lat="45.00595" lon="2.89261">
        <ele>1238.8</ele>
        <time>2022-03-20T09:11:13Z</time>
      </trkpt>
      <trkpt lat="45.00588" lon="2.89269">
        <ele>1237.35</ele>
        <time>2022-03-20T09:11:20Z</time>
      </trkpt>
      <trkpt lat="45.00581" lon="2.89277">
        <ele>1234.95</ele>
        <time>2022-03-20T09:11:28Z</time>
      </trkpt>
      <trkpt lat="45.00574" lon="2.89285">
        <ele>1232.55</ele>
        <time>2022-03-20T09:11:34Z</time>
      </trkpt>
      <trkpt lat="45.00572" lon="2.89288">
        <ele>1231.59</ele>
        <time>2022-03-20T09:11:36Z</time>
      </trkpt>
      <trkpt lat="45.00567" lon="2.89293">
        <ele>1230.62</ele>
        <time>2022-03-20T09:11:41Z</time>
      </trkpt>
      <trkpt lat="45.00566" lon="2.89297">
        <ele>1230.62</ele>
        <time>2022-03-20T09:11:43Z</time>
      </trkpt>
      <trkpt lat="45.00561" lon="2.8931">
        <ele>1233.03</ele>
        <time>2022-03-20T09:11:51Z</time>
      </trkpt>
      <trkpt lat="45.00559" lon="2.89332">
        <ele>1230.62</ele>
        <time>2022-03-20T09:12:04Z</time>
      </trkpt>
      <trkpt lat="45.00558" lon="2.89352">
        <ele>1230.14</ele>
        <time>2022-03-20T09:12:14Z</time>
      </trkpt>
      <trkpt lat="45.00558" lon="2.89355">
        <ele>1230.14</ele>
        <time>2022-03-20T09:12:18Z</time>
      </trkpt>
      <trkpt lat="45.00558" lon="2.89364">
        <ele>1228.22</ele>
        <time>2022-03-20T09:12:24Z</time>
      </trkpt>
      <trkpt lat="45.00557" lon="2.89376">
        <ele>1227.74</ele>
        <time>2022-03-20T09:12:32Z</time>
      </trkpt>
      <trkpt lat="45.00549" lon="2.89391">
        <ele>1224.38</ele>
        <time>2022-03-20T09:12:42Z</time>
      </trkpt>
      <trkpt lat="45.00538" lon="2.89409">
        <ele>1219.09</ele>
        <time>2022-03-20T09:12:51Z</time>
      </trkpt>
      <trkpt lat="45.00535" lon="2.89413">
        <ele>1217.65</ele>
        <time>2022-03-20T09:12:55Z</time>
      </trkpt>
      <trkpt lat="45.00528" lon="2.89429">
        <ele>1212.84</ele>
        <time>2022-03-20T09:13:06Z</time>
      </trkpt>
      <trkpt lat="45.00521" lon="2.8944">
        <ele>1209.48</ele>
        <time>2022-03-20T09:13:16Z</time>
      </trkpt>
      <trkpt lat="45.00513" lon="2.89456">
        <ele>1209.48</ele>
        <time>2022-03-20T09:13:23Z</time>
      </trkpt>
      <trkpt lat="45.00506" lon="2.89471">
        <ele>1210.44</ele>
        <time>2022-03-20T09:13:29Z</time>
      </trkpt>
      <trkpt lat="45.00515" lon="2.89482">
        <ele>1210.44</ele>
        <time>2022-03-20T09:13:37Z</time>
      </trkpt>
      <trkpt lat="45.00534" lon="2.89472">
        <ele>1208.51</ele>
        <time>2022-03-20T09:13:50Z</time>
      </trkpt>
      <trkpt lat="45.00536" lon="2.89469">
        <ele>1208.51</ele>
        <time>2022-03-20T09:14:03Z</time>
      </trkpt>
      <trkpt lat="45.00537" lon="2.8947">
        <ele>1208.51</ele>
        <time>2022-03-20T09:15:13Z</time>
      </trkpt>
      <trkpt lat="45.00542" lon="2.89474">
        <ele>1208.03</ele>
        <time>2022-03-20T09:15:17Z</time>
      </trkpt>
      <trkpt lat="45.00561" lon="2.89471">
        <ele>1207.55</ele>
        <time>2022-03-20T09:15:30Z</time>
      </trkpt>
      <trkpt lat="45.00576" lon="2.89472">
        <ele>1208.03</ele>
        <time>2022-03-20T09:15:41Z</time>
      </trkpt>
      <trkpt lat="45.00581" lon="2.89471">
        <ele>1208.51</ele>
        <time>2022-03-20T09:15:45Z</time>
      </trkpt>
      <trkpt lat="45.0059" lon="2.89473">
        <ele>1208.51</ele>
        <time>2022-03-20T09:15:50Z</time>
      </trkpt>
      <trkpt lat="45.00594" lon="2.8947">
        <ele>1208.51</ele>
        <time>2022-03-20T09:15:53Z</time>
      </trkpt>
      <trkpt lat="45.00615" lon="2.89467">
        <ele>1206.11</ele>
        <time>2022-03-20T09:16:07Z</time>
      </trkpt>
      <trkpt lat="45.00632" lon="2.89476">
        <ele>1205.63</ele>
        <time>2022-03-20T09:16:18Z</time>
      </trkpt>
      <trkpt lat="45.00645" lon="2.8948">
        <ele>1205.63</ele>
        <time>2022-03-20T09:16:24Z</time>
      </trkpt>
      <trkpt lat="45.00661" lon="2.89478">
        <ele>1203.23</ele>
        <time>2022-03-20T09:16:36Z</time>
      </trkpt>
      <trkpt lat="45.00676" lon="2.89481">
        <ele>1203.23</ele>
        <time>2022-03-20T09:16:47Z</time>
      </trkpt>
      <trkpt lat="45.00682" lon="2.89483">
        <ele>1203.71</ele>
        <time>2022-03-20T09:16:51Z</time>
      </trkpt>
      <trkpt lat="45.00689" lon="2.89485">
        <ele>1204.19</ele>
        <time>2022-03-20T09:16:55Z</time>
      </trkpt>
      <trkpt lat="45.00708" lon="2.89489">
        <ele>1203.23</ele>
        <time>2022-03-20T09:17:08Z</time>
      </trkpt>
      <trkpt lat="45.00714" lon="2.89493">
        <ele>1202.75</ele>
        <time>2022-03-20T09:17:12Z</time>
      </trkpt>
      <trkpt lat="45.00734" lon="2.89497">
        <ele>1203.23</ele>
        <time>2022-03-20T09:17:23Z</time>
      </trkpt>
      <trkpt lat="45.00747" lon="2.895">
        <ele>1202.27</ele>
        <time>2022-03-20T09:17:32Z</time>
      </trkpt>
      <trkpt lat="45.00771" lon="2.89508">
        <ele>1197.46</ele>
        <time>2022-03-20T09:17:46Z</time>
      </trkpt>
      <trkpt lat="45.00774" lon="2.89509">
        <ele>1196.98</ele>
        <time>2022-03-20T09:17:48Z</time>
      </trkpt>
      <trkpt lat="45.00787" lon="2.89513">
        <ele>1196.98</ele>
        <time>2022-03-20T09:17:57Z</time>
      </trkpt>
      <trkpt lat="45.00793" lon="2.89516">
        <ele>1196.98</ele>
        <time>2022-03-20T09:18:01Z</time>
      </trkpt>
      <trkpt lat="45.00797" lon="2.89516">
        <ele>1196.98</ele>
        <time>2022-03-20T09:18:06Z</time>
      </trkpt>
      <trkpt lat="45.008" lon="2.89516">
        <ele>1196.98</ele>
        <time>2022-03-20T09:18:08Z</time>
      </trkpt>
      <trkpt lat="45.00821" lon="2.89522">
        <ele>1196.5</ele>
        <time>2022-03-20T09:18:21Z</time>
      </trkpt>
      <trkpt lat="45.00836" lon="2.89527">
        <ele>1196.02</ele>
        <time>2022-03-20T09:18:30Z</time>
      </trkpt>
      <trkpt lat="45.0085" lon="2.89531">
        <ele>1196.98</ele>
        <time>2022-03-20T09:18:40Z</time>
      </trkpt>
      <trkpt lat="45.00855" lon="2.89533">
        <ele>1196.5</ele>
        <time>2022-03-20T09:18:44Z</time>
      </trkpt>
      <trkpt lat="45.00873" lon="2.89541">
        <ele>1195.54</ele>
        <time>2022-03-20T09:18:56Z</time>
      </trkpt>
      <trkpt lat="45.00892" lon="2.89547">
        <ele>1194.58</ele>
        <time>2022-03-20T09:19:08Z</time>
      </trkpt>
      <trkpt lat="45.00906" lon="2.89549">
        <ele>1192.65</ele>
        <time>2022-03-20T09:19:19Z</time>
      </trkpt>
      <trkpt lat="45.00911" lon="2.8955">
        <ele>1192.65</ele>
        <time>2022-03-20T09:19:23Z</time>
      </trkpt>
      <trkpt lat="45.00918" lon="2.8955">
        <ele>1191.69</ele>
        <time>2022-03-20T09:19:27Z</time>
      </trkpt>
      <trkpt lat="45.0094" lon="2.89555">
        <ele>1190.25</ele>
        <time>2022-03-20T09:19:41Z</time>
      </trkpt>
      <trkpt lat="45.00954" lon="2.89556">
        <ele>1187.37</ele>
        <time>2022-03-20T09:19:51Z</time>
      </trkpt>
      <trkpt lat="45.00958" lon="2.89556">
        <ele>1186.4</ele>
        <time>2022-03-20T09:19:54Z</time>
      </trkpt>
      <trkpt lat="45.00962" lon="2.89558">
        <ele>1185.92</ele>
        <time>2022-03-20T09:19:57Z</time>
      </trkpt>
      <trkpt lat="45.00973" lon="2.89568">
        <ele>1183.52</ele>
        <time>2022-03-20T09:20:05Z</time>
      </trkpt>
      <trkpt lat="45.00984" lon="2.89573">
        <ele>1182.56</ele>
        <time>2022-03-20T09:20:12Z</time>
      </trkpt>
      <trkpt lat="45.00998" lon="2.89571">
        <ele>1179.67</ele>
        <time>2022-03-20T09:20:22Z</time>
      </trkpt>
      <trkpt lat="45.01005" lon="2.8957">
        <ele>1178.71</ele>
        <time>2022-03-20T09:20:27Z</time>
      </trkpt>
      <trkpt lat="45.01016" lon="2.89575">
        <ele>1177.27</ele>
        <time>2022-03-20T09:20:35Z</time>
      </trkpt>
      <trkpt lat="45.01025" lon="2.89582">
        <ele>1175.83</ele>
        <time>2022-03-20T09:20:44Z</time>
      </trkpt>
      <trkpt lat="45.01024" lon="2.89597">
        <ele>1172.47</ele>
        <time>2022-03-20T09:20:51Z</time>
      </trkpt>
      <trkpt lat="45.0102" lon="2.89603">
        <ele>1170.06</ele>
        <time>2022-03-20T09:20:55Z</time>
      </trkpt>
      <trkpt lat="45.0101" lon="2.8963">
        <ele>1169.58</ele>
        <time>2022-03-20T09:21:07Z</time>
      </trkpt>
      <trkpt lat="45.01009" lon="2.89636">
        <ele>1169.58</ele>
        <time>2022-03-20T09:21:11Z</time>
      </trkpt>
      <trkpt lat="45.01001" lon="2.89657">
        <ele>1171.02</ele>
        <time>2022-03-20T09:21:23Z</time>
      </trkpt>
      <trkpt lat="45.00997" lon="2.89665">
        <ele>1170.06</ele>
        <time>2022-03-20T09:21:27Z</time>
      </trkpt>
      <trkpt lat="45.00992" lon="2.89684">
        <ele>1167.18</ele>
        <time>2022-03-20T09:21:38Z</time>
      </trkpt>
      <trkpt lat="45.00983" lon="2.89705">
        <ele>1167.18</ele>
        <time>2022-03-20T09:21:49Z</time>
      </trkpt>
      <trkpt lat="45.00975" lon="2.89726">
        <ele>1169.1</ele>
        <time>2022-03-20T09:22:00Z</time>
      </trkpt>
      <trkpt lat="45.00971" lon="2.89736">
        <ele>1169.1</ele>
        <time>2022-03-20T09:22:06Z</time>
      </trkpt>
      <trkpt lat="45.00957" lon="2.89759">
        <ele>1169.1</ele>
        <time>2022-03-20T09:22:18Z</time>
      </trkpt>
      <trkpt lat="45.00947" lon="2.89772">
        <ele>1167.18</ele>
        <time>2022-03-20T09:22:27Z</time>
      </trkpt>
      <trkpt lat="45.00933" lon="2.89791">
        <ele>1164.29</ele>
        <time>2022-03-20T09:22:38Z</time>
      </trkpt>
      <trkpt lat="45.0093" lon="2.89797">
        <ele>1163.33</ele>
        <time>2022-03-20T09:22:41Z</time>
      </trkpt>
      <trkpt lat="45.00918" lon="2.89812">
        <ele>1162.37</ele>
        <time>2022-03-20T09:22:52Z</time>
      </trkpt>
      <trkpt lat="45.00907" lon="2.89824">
        <ele>1162.85</ele>
        <time>2022-03-20T09:23:02Z</time>
      </trkpt>
      <trkpt lat="45.00905" lon="2.89828">
        <ele>1161.89</ele>
        <time>2022-03-20T09:23:04Z</time>
      </trkpt>
      <trkpt lat="45.009" lon="2.89836">
        <ele>1158.53</ele>
        <time>2022-03-20T09:23:11Z</time>
      </trkpt>
      <trkpt lat="45.00896" lon="2.89847">
        <ele>1154.68</ele>
        <time>2022-03-20T09:23:16Z</time>
      </trkpt>
      <trkpt lat="45.00889" lon="2.89868">
        <ele>1154.68</ele>
        <time>2022-03-20T09:23:27Z</time>
      </trkpt>
      <trkpt lat="45.00882" lon="2.8988">
        <ele>1153.24</ele>
        <time>2022-03-20T09:23:33Z</time>
      </trkpt>
      <trkpt lat="45.00878" lon="2.89889">
        <ele>1151.8</ele>
        <time>2022-03-20T09:23:37Z</time>
      </trkpt>
      <trkpt lat="45.00873" lon="2.89905">
        <ele>1149.87</ele>
        <time>2022-03-20T09:23:44Z</time>
      </trkpt>
      <trkpt lat="45.00868" lon="2.89919">
        <ele>1148.91</ele>
        <time>2022-03-20T09:23:50Z</time>
      </trkpt>
      <trkpt lat="45.00866" lon="2.89928">
        <ele>1149.39</ele>
        <time>2022-03-20T09:23:55Z</time>
      </trkpt>
      <trkpt lat="45.00858" lon="2.89939">
        <ele>1148.43</ele>
        <time>2022-03-20T09:24:02Z</time>
      </trkpt>
      <trkpt lat="45.00853" lon="2.89944">
        <ele>1147.95</ele>
        <time>2022-03-20T09:24:05Z</time>
      </trkpt>
      <trkpt lat="45.00844" lon="2.89953">
        <ele>1145.55</ele>
        <time>2022-03-20T09:24:12Z</time>
      </trkpt>
      <trkpt lat="45.00841" lon="2.89957">
        <ele>1145.07</ele>
        <time>2022-03-20T09:24:16Z</time>
      </trkpt>
      <trkpt lat="45.00838" lon="2.89959">
        <ele>1144.11</ele>
        <time>2022-03-20T09:24:26Z</time>
      </trkpt>
      <trkpt lat="45.00833" lon="2.89982">
        <ele>1143.63</ele>
        <time>2022-03-20T09:24:39Z</time>
      </trkpt>
      <trkpt lat="45.00832" lon="2.89985">
        <ele>1143.63</ele>
        <time>2022-03-20T09:24:40Z</time>
      </trkpt>
      <trkpt lat="45.0082" lon="2.90004">
        <ele>1140.74</ele>
        <time>2022-03-20T09:24:51Z</time>
      </trkpt>
      <trkpt lat="45.00808" lon="2.90021">
        <ele>1139.78</ele>
        <time>2022-03-20T09:25:02Z</time>
      </trkpt>
      <trkpt lat="45.00798" lon="2.90035">
        <ele>1137.86</ele>
        <time>2022-03-20T09:25:12Z</time>
      </trkpt>
      <trkpt lat="45.00793" lon="2.90042">
        <ele>1136.42</ele>
        <time>2022-03-20T09:25:17Z</time>
      </trkpt>
      <trkpt lat="45.00781" lon="2.90059">
        <ele>1133.53</ele>
        <time>2022-03-20T09:25:30Z</time>
      </trkpt>
      <trkpt lat="45.00777" lon="2.90069">
        <ele>1132.57</ele>
        <time>2022-03-20T09:25:36Z</time>
      </trkpt>
      <trkpt lat="45.00774" lon="2.90076">
        <ele>1132.57</ele>
        <time>2022-03-20T09:25:40Z</time>
      </trkpt>
      <trkpt lat="45.00768" lon="2.90094">
        <ele>1132.09</ele>
        <time>2022-03-20T09:25:50Z</time>
      </trkpt>
      <trkpt lat="45.00766" lon="2.90103">
        <ele>1130.65</ele>
        <time>2022-03-20T09:25:55Z</time>
      </trkpt>
      <trkpt lat="45.00765" lon="2.9011">
        <ele>1131.13</ele>
        <time>2022-03-20T09:26:00Z</time>
      </trkpt>
      <trkpt lat="45.00765" lon="2.90131">
        <ele>1133.53</ele>
        <time>2022-03-20T09:26:11Z</time>
      </trkpt>
      <trkpt lat="45.00765" lon="2.90137">
        <ele>1133.53</ele>
        <time>2022-03-20T09:26:13Z</time>
      </trkpt>
      <trkpt lat="45.00768" lon="2.90164">
        <ele>1134.49</ele>
        <time>2022-03-20T09:26:25Z</time>
      </trkpt>
      <trkpt lat="45.0077" lon="2.90174">
        <ele>1133.05</ele>
        <time>2022-03-20T09:26:32Z</time>
      </trkpt>
      <trkpt lat="45.00769" lon="2.90198">
        <ele>1131.13</ele>
        <time>2022-03-20T09:26:44Z</time>
      </trkpt>
      <trkpt lat="45.00766" lon="2.90218">
        <ele>1128.73</ele>
        <time>2022-03-20T09:26:55Z</time>
      </trkpt>
      <trkpt lat="45.00758" lon="2.90238">
        <ele>1129.69</ele>
        <time>2022-03-20T09:27:05Z</time>
      </trkpt>
      <trkpt lat="45.00747" lon="2.90261">
        <ele>1130.65</ele>
        <time>2022-03-20T09:27:16Z</time>
      </trkpt>
      <trkpt lat="45.00737" lon="2.90275">
        <ele>1130.65</ele>
        <time>2022-03-20T09:27:27Z</time>
      </trkpt>
      <trkpt lat="45.00736" lon="2.90278">
        <ele>1131.13</ele>
        <time>2022-03-20T09:27:31Z</time>
      </trkpt>
      <trkpt lat="45.00726" lon="2.90301">
        <ele>1130.65</ele>
        <time>2022-03-20T09:27:41Z</time>
      </trkpt>
      <trkpt lat="45.00716" lon="2.90319">
        <ele>1130.17</ele>
        <time>2022-03-20T09:27:52Z</time>
      </trkpt>
      <trkpt lat="45.00713" lon="2.90324">
        <ele>1129.21</ele>
        <time>2022-03-20T09:27:55Z</time>
      </trkpt>
      <trkpt lat="45.00704" lon="2.9034">
        <ele>1125.36</ele>
        <time>2022-03-20T09:28:05Z</time>
      </trkpt>
      <trkpt lat="45.00695" lon="2.90358">
        <ele>1125.36</ele>
        <time>2022-03-20T09:28:14Z</time>
      </trkpt>
      <trkpt lat="45.00688" lon="2.90374">
        <ele>1124.88</ele>
        <time>2022-03-20T09:28:23Z</time>
      </trkpt>
      <trkpt lat="45.0068" lon="2.90391">
        <ele>1122.48</ele>
        <time>2022-03-20T09:28:36Z</time>
      </trkpt>
      <trkpt lat="45.0068" lon="2.90392">
        <ele>1122.48</ele>
        <time>2022-03-20T09:28:43Z</time>
      </trkpt>
      <trkpt lat="45.00678" lon="2.90396">
        <ele>1122.48</ele>
        <time>2022-03-20T09:28:46Z</time>
      </trkpt>
      <trkpt lat="45.00676" lon="2.90407">
        <ele>1123.44</ele>
        <time>2022-03-20T09:28:52Z</time>
      </trkpt>
      <trkpt lat="45.00673" lon="2.90417">
        <ele>1123.92</ele>
        <time>2022-03-20T09:28:57Z</time>
      </trkpt>
      <trkpt lat="45.00668" lon="2.90429">
        <ele>1123.92</ele>
        <time>2022-03-20T09:29:07Z</time>
      </trkpt>
      <trkpt lat="45.00671" lon="2.9044">
        <ele>1122.96</ele>
        <time>2022-03-20T09:29:15Z</time>
      </trkpt>
      <trkpt lat="45.00666" lon="2.90453">
        <ele>1122</ele>
        <time>2022-03-20T09:29:21Z</time>
      </trkpt>
      <trkpt lat="45.00672" lon="2.90469">
        <ele>1124.4</ele>
        <time>2022-03-20T09:29:30Z</time>
      </trkpt>
      <trkpt lat="45.00667" lon="2.90481">
        <ele>1122.96</ele>
        <time>2022-03-20T09:29:38Z</time>
      </trkpt>
      <trkpt lat="45.00654" lon="2.90488">
        <ele>1118.63</ele>
        <time>2022-03-20T09:29:48Z</time>
      </trkpt>
      <trkpt lat="45.00639" lon="2.90498">
        <ele>1114.31</ele>
        <time>2022-03-20T09:29:58Z</time>
      </trkpt>
      <trkpt lat="45.00637" lon="2.90499">
        <ele>1113.34</ele>
        <time>2022-03-20T09:30:00Z</time>
      </trkpt>
      <trkpt lat="45.00623" lon="2.905">
        <ele>1111.9</ele>
        <time>2022-03-20T09:30:11Z</time>
      </trkpt>
      <trkpt lat="45.00618" lon="2.90501">
        <ele>1112.38</ele>
        <time>2022-03-20T09:30:15Z</time>
      </trkpt>
      <trkpt lat="45.00614" lon="2.90503">
        <ele>1112.38</ele>
        <time>2022-03-20T09:30:18Z</time>
      </trkpt>
      <trkpt lat="45.00604" lon="2.90508">
        <ele>1110.94</ele>
        <time>2022-03-20T09:30:26Z</time>
      </trkpt>
      <trkpt lat="45.00596" lon="2.90509">
        <ele>1110.46</ele>
        <time>2022-03-20T09:30:31Z</time>
      </trkpt>
      <trkpt lat="45.00591" lon="2.90509">
        <ele>1109.5</ele>
        <time>2022-03-20T09:30:35Z</time>
      </trkpt>
      <trkpt lat="45.00577" lon="2.90511">
        <ele>1107.1</ele>
        <time>2022-03-20T09:30:45Z</time>
      </trkpt>
      <trkpt lat="45.00567" lon="2.90512">
        <ele>1107.58</ele>
        <time>2022-03-20T09:30:54Z</time>
      </trkpt>
      <trkpt lat="45.0055" lon="2.90517">
        <ele>1108.06</ele>
        <time>2022-03-20T09:31:05Z</time>
      </trkpt>
      <trkpt lat="45.00549" lon="2.90517">
        <ele>1108.06</ele>
        <time>2022-03-20T09:31:06Z</time>
      </trkpt>
      <trkpt lat="45.00541" lon="2.90519">
        <ele>1108.06</ele>
        <time>2022-03-20T09:31:14Z</time>
      </trkpt>
      <trkpt lat="45.00523" lon="2.9052">
        <ele>1105.65</ele>
        <time>2022-03-20T09:31:26Z</time>
      </trkpt>
      <trkpt lat="45.00511" lon="2.90521">
        <ele>1102.77</ele>
        <time>2022-03-20T09:31:34Z</time>
      </trkpt>
      <trkpt lat="45.00508" lon="2.90521">
        <ele>1102.29</ele>
        <time>2022-03-20T09:31:36Z</time>
      </trkpt>
      <trkpt lat="45.00499" lon="2.90521">
        <ele>1101.81</ele>
        <time>2022-03-20T09:31:43Z</time>
      </trkpt>
      <trkpt lat="45.00487" lon="2.90529">
        <ele>1101.33</ele>
        <time>2022-03-20T09:31:51Z</time>
      </trkpt>
      <trkpt lat="45.00471" lon="2.90539">
        <ele>1101.33</ele>
        <time>2022-03-20T09:32:02Z</time>
      </trkpt>
      <trkpt lat="45.00468" lon="2.90542">
        <ele>1101.33</ele>
        <time>2022-03-20T09:32:05Z</time>
      </trkpt>
      <trkpt lat="45.0046" lon="2.90557">
        <ele>1101.81</ele>
        <time>2022-03-20T09:32:14Z</time>
      </trkpt>
      <trkpt lat="45.00457" lon="2.90562">
        <ele>1100.85</ele>
        <time>2022-03-20T09:32:19Z</time>
      </trkpt>
      <trkpt lat="45.00454" lon="2.90572">
        <ele>1099.4</ele>
        <time>2022-03-20T09:32:26Z</time>
      </trkpt>
      <trkpt lat="45.0044" lon="2.90579">
        <ele>1097</ele>
        <time>2022-03-20T09:32:38Z</time>
      </trkpt>
      <trkpt lat="45.00425" lon="2.90578">
        <ele>1095.08</ele>
        <time>2022-03-20T09:32:50Z</time>
      </trkpt>
      <trkpt lat="45.00411" lon="2.90579">
        <ele>1094.6</ele>
        <time>2022-03-20T09:33:02Z</time>
      </trkpt>
      <trkpt lat="45.00407" lon="2.90587">
        <ele>1095.56</ele>
        <time>2022-03-20T09:33:08Z</time>
      </trkpt>
    </trkseg>
  </trk>
</gpx>